createdAt,value
2019-04-28T00:00:45.349Z,0.00
2019-04-28T00:01:45.377Z,0.00
2019-04-28T00:02:45.321Z,0.00
2019-04-28T00:03:45.355Z,0.00
2019-04-28T00:04:45.295Z,0.00
2019-04-28T00:05:45.293Z,0.00
2019-04-28T00:06:45.268Z,0.00
2019-04-28T00:07:45.270Z,0.00
2019-04-28T00:08:45.259Z,0.00
2019-04-28T00:09:45.242Z,0.00
2019-04-28T00:10:45.237Z,0.00
2019-04-28T00:11:45.221Z,0.00
2019-04-28T00:12:45.246Z,0.00
2019-04-28T00:13:45.196Z,0.00
2019-04-28T00:14:45.201Z,0.00
2019-04-28T00:15:45.174Z,0.00
2019-04-28T00:16:45.179Z,0.00
2019-04-28T00:17:45.173Z,0.00
2019-04-28T00:18:45.133Z,0.00
2019-04-28T00:19:45.136Z,0.00
2019-04-28T00:20:45.119Z,0.00
2019-04-28T00:21:45.113Z,0.00
2019-04-28T00:22:45.118Z,0.00
2019-04-28T00:23:45.080Z,0.00
2019-04-28T00:24:45.085Z,0.00
2019-04-28T00:25:45.071Z,0.00
2019-04-28T00:26:45.052Z,0.00
2019-04-28T00:27:45.050Z,0.00
2019-04-28T00:28:45.054Z,0.00
2019-04-28T00:29:46.147Z,0.00
2019-04-28T00:30:45.005Z,0.00
2019-04-28T00:31:44.993Z,0.00
2019-04-28T00:32:45.010Z,0.00
2019-04-28T00:33:44.975Z,0.00
2019-04-28T00:34:44.959Z,0.00
2019-04-28T00:35:44.951Z,0.00
2019-04-28T00:36:44.936Z,0.00
2019-04-28T00:37:44.960Z,0.00
2019-04-28T00:38:44.928Z,0.00
2019-04-28T00:39:44.909Z,0.00
2019-04-28T00:40:44.900Z,0.00
2019-04-28T00:41:44.886Z,0.00
2019-04-28T00:42:44.883Z,0.00
2019-04-28T00:43:44.862Z,0.00
2019-04-28T00:44:44.848Z,0.00
2019-04-28T00:45:44.828Z,0.00
2019-04-28T00:46:44.836Z,0.00
2019-04-28T00:47:44.834Z,0.00
2019-04-28T00:48:44.811Z,0.00
2019-04-28T00:49:44.806Z,0.00
2019-04-28T00:50:44.777Z,0.00
2019-04-28T00:51:44.783Z,0.00
2019-04-28T00:52:44.777Z,0.00
2019-04-28T00:53:44.750Z,0.00
2019-04-28T00:54:44.743Z,0.00
2019-04-28T00:55:44.729Z,0.00
2019-04-28T00:56:44.713Z,0.00
2019-04-28T00:57:44.708Z,0.00
2019-04-28T00:58:44.693Z,0.00
2019-04-28T00:59:53.984Z,0.00
2019-04-28T01:00:45.669Z,0.00
2019-04-28T01:01:44.655Z,0.00
2019-04-28T01:02:44.666Z,0.00
2019-04-28T01:03:44.627Z,0.00
2019-04-28T01:04:44.630Z,0.00
2019-04-28T01:05:44.615Z,0.00
2019-04-28T01:06:44.624Z,0.00
2019-04-28T01:07:44.628Z,0.00
2019-04-28T01:08:44.587Z,0.00
2019-04-28T01:09:44.584Z,0.00
2019-04-28T01:10:44.558Z,0.00
2019-04-28T01:11:44.550Z,0.00
2019-04-28T01:12:46.593Z,0.00
2019-04-28T01:13:44.548Z,0.00
2019-04-28T01:14:44.580Z,0.00
2019-04-28T01:15:44.506Z,0.00
2019-04-28T01:16:44.488Z,0.00
2019-04-28T01:17:44.488Z,0.00
2019-04-28T01:18:44.498Z,0.00
2019-04-28T01:19:44.468Z,0.00
2019-04-28T01:20:44.443Z,0.00
2019-04-28T01:21:44.428Z,0.00
2019-04-28T01:22:44.434Z,0.00
2019-04-28T01:23:44.444Z,0.00
2019-04-28T01:24:44.393Z,0.00
2019-04-28T01:25:44.386Z,0.00
2019-04-28T01:26:44.399Z,0.00
2019-04-28T01:27:44.360Z,0.00
2019-04-28T01:28:44.395Z,0.00
2019-04-28T01:29:44.335Z,0.00
2019-04-28T01:30:44.333Z,0.00
2019-04-28T01:31:44.320Z,0.00
2019-04-28T01:32:44.314Z,0.00
2019-04-28T01:33:44.317Z,0.00
2019-04-28T01:34:44.300Z,0.00
2019-04-28T01:35:44.270Z,0.00
2019-04-28T01:36:44.268Z,0.00
2019-04-28T01:37:44.251Z,0.00
2019-04-28T01:38:44.260Z,0.00
2019-04-28T01:39:44.242Z,0.00
2019-04-28T01:40:44.222Z,0.00
2019-04-28T01:41:44.206Z,0.00
2019-04-28T01:42:44.200Z,0.00
2019-04-28T01:43:44.210Z,0.00
2019-04-28T01:44:44.173Z,0.00
2019-04-28T01:45:44.166Z,0.00
2019-04-28T01:46:44.148Z,0.00
2019-04-28T01:47:44.139Z,0.00
2019-04-28T01:48:44.139Z,0.00
2019-04-28T01:49:44.117Z,0.00
2019-04-28T01:50:44.107Z,0.00
2019-04-28T01:51:44.103Z,0.00
2019-04-28T01:52:44.086Z,0.00
2019-04-28T01:53:44.118Z,0.00
2019-04-28T01:54:44.059Z,0.00
2019-04-28T01:55:44.055Z,0.00
2019-04-28T01:56:44.059Z,0.00
2019-04-28T01:57:44.032Z,0.00
2019-04-28T01:58:44.041Z,0.00
2019-04-28T01:59:44.010Z,0.00
2019-04-28T02:00:43.995Z,0.00
2019-04-28T02:01:43.983Z,0.00
2019-04-28T02:02:43.978Z,0.00
2019-04-28T02:03:43.984Z,0.00
2019-04-28T02:04:43.949Z,0.00
2019-04-28T02:05:43.956Z,0.00
2019-04-28T02:06:43.926Z,0.00
2019-04-28T02:07:43.919Z,0.00
2019-04-28T02:08:43.923Z,0.00
2019-04-28T02:09:43.910Z,0.00
2019-04-28T02:10:43.875Z,0.00
2019-04-28T02:11:43.879Z,0.00
2019-04-28T02:12:43.861Z,0.00
2019-04-28T02:13:43.877Z,0.00
2019-04-28T02:14:43.838Z,0.00
2019-04-28T02:15:43.831Z,0.00
2019-04-28T02:16:43.813Z,0.00
2019-04-28T02:17:43.807Z,0.00
2019-04-28T02:18:43.799Z,0.00
2019-04-28T02:19:43.803Z,0.00
2019-04-28T02:20:43.762Z,0.00
2019-04-28T02:21:43.767Z,0.00
2019-04-28T02:22:43.745Z,0.00
2019-04-28T02:23:43.737Z,0.00
2019-04-28T02:24:43.767Z,0.00
2019-04-28T02:25:43.716Z,0.00
2019-04-28T02:26:43.726Z,0.00
2019-04-28T02:27:43.704Z,0.00
2019-04-28T02:28:43.690Z,0.00
2019-04-28T02:29:43.693Z,0.00
2019-04-28T02:30:49.471Z,0.00
2019-04-28T02:31:44.695Z,0.00
2019-04-28T02:32:43.648Z,0.00
2019-04-28T02:33:43.654Z,0.00
2019-04-28T02:34:43.634Z,0.00
2019-04-28T02:35:43.638Z,0.00
2019-04-28T02:36:43.607Z,0.00
2019-04-28T02:37:43.590Z,0.00
2019-04-28T02:38:43.582Z,0.00
2019-04-28T02:39:43.605Z,0.00
2019-04-28T02:40:43.558Z,0.00
2019-04-28T02:41:43.552Z,0.00
2019-04-28T02:42:44.445Z,0.00
2019-04-28T02:43:43.542Z,0.00
2019-04-28T02:44:43.514Z,0.00
2019-04-28T02:45:43.506Z,0.00
2019-04-28T02:46:43.488Z,0.00
2019-04-28T02:47:43.478Z,0.00
2019-04-28T02:48:43.487Z,0.00
2019-04-28T02:49:43.485Z,0.00
2019-04-28T02:50:43.440Z,0.00
2019-04-28T02:51:43.435Z,0.00
2019-04-28T02:52:43.423Z,0.00
2019-04-28T02:53:43.425Z,0.00
2019-04-28T02:54:43.401Z,0.00
2019-04-28T02:55:43.403Z,0.00
2019-04-28T02:56:43.771Z,0.00
2019-04-28T02:57:43.373Z,0.00
2019-04-28T02:58:43.356Z,0.00
2019-04-28T02:59:44.752Z,0.00
2019-04-28T03:01:00.783Z,0.00
2019-04-28T03:01:44.322Z,0.00
2019-04-28T03:02:43.310Z,0.00
2019-04-28T03:03:43.309Z,0.00
2019-04-28T03:04:43.279Z,0.00
2019-04-28T03:05:43.290Z,0.00
2019-04-28T03:06:43.264Z,0.00
2019-04-28T03:07:43.259Z,0.00
2019-04-28T03:08:43.249Z,0.00
2019-04-28T03:09:43.246Z,0.00
2019-04-28T03:10:43.239Z,0.00
2019-04-28T03:11:43.272Z,0.00
2019-04-28T03:12:43.199Z,0.00
2019-04-28T03:13:43.194Z,0.00
2019-04-28T03:14:44.135Z,0.00
2019-04-28T03:15:43.177Z,0.00
2019-04-28T03:16:43.155Z,0.00
2019-04-28T03:17:43.135Z,0.00
2019-04-28T03:18:43.135Z,0.00
2019-04-28T03:19:43.129Z,0.00
2019-04-28T03:20:43.136Z,0.00
2019-04-28T03:21:43.101Z,0.00
2019-04-28T03:22:43.085Z,0.00
2019-04-28T03:23:43.082Z,0.00
2019-04-28T03:24:43.069Z,0.00
2019-04-28T03:25:43.077Z,0.00
2019-04-28T03:26:43.037Z,0.00
2019-04-28T03:27:43.037Z,4.00
2019-04-28T03:28:43.022Z,4.00
2019-04-28T03:29:43.015Z,4.00
2019-04-28T03:30:44.204Z,4.00
2019-04-28T03:32:52.400Z,4.00
2019-04-28T03:33:48.945Z,4.00
2019-04-28T03:34:44.599Z,4.00
2019-04-28T03:35:44.177Z,8.00
2019-04-28T03:36:42.937Z,8.00
2019-04-28T03:37:42.938Z,8.00
2019-04-28T03:38:42.911Z,4.00
2019-04-28T03:39:42.896Z,4.00
2019-04-28T03:40:42.905Z,4.00
2019-04-28T03:41:42.873Z,8.00
2019-04-28T03:42:42.883Z,8.00
2019-04-28T03:43:42.855Z,8.00
2019-04-28T03:44:42.851Z,12.00
2019-04-28T03:45:42.843Z,8.00
2019-04-28T03:46:42.823Z,8.00
2019-04-28T03:47:42.805Z,12.00
2019-04-28T03:48:42.803Z,8.00
2019-04-28T03:49:43.317Z,12.00
2019-04-28T03:50:42.796Z,12.00
2019-04-28T03:51:42.758Z,12.00
2019-04-28T03:52:42.761Z,16.00
2019-04-28T03:53:42.741Z,16.00
2019-04-28T03:54:42.732Z,16.00
2019-04-28T03:55:42.727Z,16.00
2019-04-28T03:56:42.729Z,20.00
2019-04-28T03:57:42.689Z,20.00
2019-04-28T03:58:42.697Z,20.00
2019-04-28T03:59:43.784Z,20.00
2019-04-28T04:00:42.666Z,24.00
2019-04-28T04:01:55.611Z,24.00
2019-04-28T04:02:43.650Z,20.00
2019-04-28T04:03:42.629Z,24.00
2019-04-28T04:04:42.616Z,24.00
2019-04-28T04:05:42.624Z,24.00
2019-04-28T04:06:42.656Z,24.00
2019-04-28T04:07:43.243Z,28.00
2019-04-28T04:08:42.575Z,28.00
2019-04-28T04:09:42.558Z,32.00
2019-04-28T04:10:42.554Z,28.00
2019-04-28T04:11:42.570Z,28.00
2019-04-28T04:12:42.530Z,28.00
2019-04-28T04:13:42.515Z,32.00
2019-04-28T04:14:42.508Z,32.00
2019-04-28T04:15:42.501Z,36.00
2019-04-28T04:16:42.491Z,36.00
2019-04-28T04:17:42.498Z,36.00
2019-04-28T04:18:42.464Z,40.00
2019-04-28T04:19:42.457Z,40.00
2019-04-28T04:20:42.450Z,40.00
2019-04-28T04:21:42.448Z,44.00
2019-04-28T04:22:42.416Z,36.00
2019-04-28T04:23:42.406Z,44.00
2019-04-28T04:24:42.395Z,44.00
2019-04-28T04:25:42.393Z,44.00
2019-04-28T04:26:42.389Z,40.00
2019-04-28T04:27:42.360Z,40.00
2019-04-28T04:28:42.350Z,48.00
2019-04-28T04:29:43.608Z,44.00
2019-04-28T04:30:42.348Z,48.00
2019-04-28T04:31:42.333Z,48.00
2019-04-28T04:32:42.314Z,44.00
2019-04-28T04:33:42.306Z,52.00
2019-04-28T04:34:42.281Z,52.00
2019-04-28T04:35:43.632Z,56.00
2019-04-28T04:36:42.275Z,52.00
2019-04-28T04:37:42.262Z,52.00
2019-04-28T04:38:45.953Z,52.00
2019-04-28T04:39:42.234Z,56.00
2019-04-28T04:40:42.219Z,56.00
2019-04-28T04:41:43.765Z,60.00
2019-04-28T04:42:42.204Z,48.00
2019-04-28T04:43:42.189Z,48.00
2019-04-28T04:44:42.179Z,44.00
2019-04-28T04:45:42.171Z,52.00
2019-04-28T04:46:42.171Z,52.00
2019-04-28T04:47:42.196Z,64.00
2019-04-28T04:48:42.131Z,76.00
2019-04-28T04:49:42.123Z,76.00
2019-04-28T04:50:42.118Z,68.00
2019-04-28T04:51:43.869Z,72.00
2019-04-28T04:52:42.096Z,84.00
2019-04-28T04:53:42.067Z,92.00
2019-04-28T04:54:42.074Z,72.00
2019-04-28T04:55:42.051Z,72.00
2019-04-28T04:56:42.050Z,64.00
2019-04-28T04:57:42.053Z,68.00
2019-04-28T04:58:42.019Z,72.00
2019-04-28T04:59:42.011Z,72.00
2019-04-28T05:00:43.442Z,80.00
2019-04-28T05:01:41.986Z,80.00
2019-04-28T05:02:50.732Z,100.00
2019-04-28T05:03:42.959Z,96.00
2019-04-28T05:04:41.947Z,104.00
2019-04-28T05:05:41.941Z,104.00
2019-04-28T05:06:41.919Z,128.00
2019-04-28T05:07:41.922Z,140.00
2019-04-28T05:08:41.903Z,140.00
2019-04-28T05:09:41.909Z,144.00
2019-04-28T05:10:41.888Z,152.00
2019-04-28T05:11:41.879Z,160.00
2019-04-28T05:12:41.877Z,184.00
2019-04-28T05:13:41.857Z,180.00
2019-04-28T05:14:41.835Z,176.00
2019-04-28T05:15:41.833Z,192.00
2019-04-28T05:16:41.818Z,232.00
2019-04-28T05:17:41.815Z,316.00
2019-04-28T05:18:41.808Z,348.00
2019-04-28T05:19:41.776Z,328.00
2019-04-28T05:20:41.775Z,292.00
2019-04-28T05:21:41.763Z,308.00
2019-04-28T05:22:42.671Z,336.00
2019-04-28T05:23:41.737Z,284.00
2019-04-28T05:24:41.729Z,244.00
2019-04-28T05:25:41.725Z,212.00
2019-04-28T05:26:47.492Z,208.00
2019-04-28T05:27:42.713Z,224.00
2019-04-28T05:28:50.612Z,272.00
2019-04-28T05:29:42.669Z,248.00
2019-04-28T05:30:43.012Z,264.00
2019-04-28T05:31:41.664Z,324.00
2019-04-28T05:32:45.353Z,428.00
2019-04-28T05:33:42.636Z,356.00
2019-04-28T05:34:46.596Z,352.00
2019-04-28T05:35:42.608Z,304.00
2019-04-28T05:36:44.519Z,332.00
2019-04-28T05:37:41.596Z,356.00
2019-04-28T05:38:42.187Z,284.00
2019-04-28T05:39:41.562Z,208.00
2019-04-28T05:40:41.549Z,188.00
2019-04-28T05:41:41.540Z,216.00
2019-04-28T05:42:41.560Z,236.00
2019-04-28T05:43:41.515Z,268.00
2019-04-28T05:44:41.509Z,344.00
2019-04-28T05:45:41.495Z,396.00
2019-04-28T05:46:41.478Z,280.00
2019-04-28T05:47:41.466Z,360.00
2019-04-28T05:48:41.490Z,380.00
2019-04-28T05:49:41.455Z,252.00
2019-04-28T05:50:41.448Z,280.00
2019-04-28T05:51:41.440Z,404.00
2019-04-28T05:52:41.410Z,460.00
2019-04-28T05:53:41.448Z,436.00
2019-04-28T05:54:41.388Z,460.00
2019-04-28T05:55:41.892Z,368.00
2019-04-28T05:56:41.373Z,456.00
2019-04-28T05:57:41.355Z,412.00
2019-04-28T05:58:41.369Z,364.00
2019-04-28T05:59:41.350Z,404.00
2019-04-28T06:00:41.857Z,424.00
2019-04-28T06:01:41.318Z,292.00
2019-04-28T06:02:54.156Z,276.00
2019-04-28T06:03:42.317Z,268.00
2019-04-28T06:04:41.279Z,228.00
2019-04-28T06:05:41.273Z,244.00
2019-04-28T06:06:41.274Z,260.00
2019-04-28T06:07:41.246Z,272.00
2019-04-28T06:08:41.265Z,300.00
2019-04-28T06:09:41.229Z,336.00
2019-04-28T06:10:41.227Z,380.00
2019-04-28T06:11:41.213Z,408.00
2019-04-28T06:12:41.192Z,392.00
2019-04-28T06:13:41.200Z,416.00
2019-04-28T06:14:41.185Z,436.00
2019-04-28T06:15:41.168Z,484.00
2019-04-28T06:16:41.162Z,460.00
2019-04-28T06:17:41.146Z,476.00
2019-04-28T06:18:42.131Z,672.00
2019-04-28T06:19:41.120Z,772.00
2019-04-28T06:20:41.111Z,896.00
2019-04-28T06:21:41.095Z,928.00
2019-04-28T06:22:41.082Z,792.00
2019-04-28T06:23:41.087Z,920.00
2019-04-28T06:24:41.068Z,936.00
2019-04-28T06:25:41.056Z,892.00
2019-04-28T06:26:41.080Z,1388.00
2019-04-28T06:27:41.029Z,1596.00
2019-04-28T06:28:41.035Z,1936.00
2019-04-28T06:29:41.025Z,1968.00
2019-04-28T06:30:40.995Z,2008.00
2019-04-28T06:31:40.987Z,2112.00
2019-04-28T06:32:40.975Z,2252.00
2019-04-28T06:33:41.027Z,2252.00
2019-04-28T06:34:40.989Z,2200.00
2019-04-28T06:35:40.947Z,2192.00
2019-04-28T06:36:40.929Z,2288.00
2019-04-28T06:37:40.935Z,2396.00
2019-04-28T06:38:40.905Z,2408.00
2019-04-28T06:39:40.917Z,2540.00
2019-04-28T06:40:40.926Z,2620.00
2019-04-28T06:41:40.877Z,2544.00
2019-04-28T06:42:40.872Z,2380.00
2019-04-28T06:43:40.853Z,2224.00
2019-04-28T06:44:40.849Z,2272.00
2019-04-28T06:45:40.927Z,2296.00
2019-04-28T06:46:40.847Z,2248.00
2019-04-28T06:47:40.807Z,2112.00
2019-04-28T06:48:40.801Z,1728.00
2019-04-28T06:49:40.818Z,1800.00
2019-04-28T06:50:40.771Z,2032.00
2019-04-28T06:51:40.756Z,2060.00
2019-04-28T06:52:40.769Z,1804.00
2019-04-28T06:53:40.739Z,1892.00
2019-04-28T06:54:40.753Z,1852.00
2019-04-28T06:55:40.731Z,2164.00
2019-04-28T06:56:40.708Z,2244.00
2019-04-28T06:57:40.706Z,2348.00
2019-04-28T06:58:40.688Z,1700.00
2019-04-28T06:59:40.692Z,1528.00
2019-04-28T07:00:40.675Z,1604.00
2019-04-28T07:01:40.657Z,2228.00
2019-04-28T07:02:40.659Z,1804.00
2019-04-28T07:03:40.624Z,1560.00
2019-04-28T07:04:40.684Z,1588.00
2019-04-28T07:05:40.648Z,2144.00
2019-04-28T07:06:40.613Z,2644.00
2019-04-28T07:07:40.598Z,2572.00
2019-04-28T07:08:40.582Z,1880.00
2019-04-28T07:09:40.600Z,1748.00
2019-04-28T07:10:40.552Z,1668.00
2019-04-28T07:11:40.553Z,2064.00
2019-04-28T07:12:40.533Z,1584.00
2019-04-28T07:13:40.526Z,1504.00
2019-04-28T07:14:40.522Z,2108.00
2019-04-28T07:15:40.500Z,1992.00
2019-04-28T07:16:40.508Z,1484.00
2019-04-28T07:17:40.513Z,1812.00
2019-04-28T07:18:40.469Z,1968.00
2019-04-28T07:19:40.466Z,2164.00
2019-04-28T07:20:40.436Z,2596.00
2019-04-28T07:21:40.432Z,2692.00
2019-04-28T07:22:40.415Z,2260.00
2019-04-28T07:23:40.415Z,2216.00
2019-04-28T07:24:40.434Z,2812.00
2019-04-28T07:25:40.401Z,2140.00
2019-04-28T07:26:40.389Z,2012.00
2019-04-28T07:27:40.360Z,2120.00
2019-04-28T07:28:40.380Z,2252.00
2019-04-28T07:29:40.338Z,2352.00
2019-04-28T07:30:40.336Z,2448.00
2019-04-28T07:31:40.311Z,2456.00
2019-04-28T07:32:40.336Z,2216.00
2019-04-28T07:33:40.297Z,2508.00
2019-04-28T07:34:40.292Z,2200.00
2019-04-28T07:35:40.340Z,2000.00
2019-04-28T07:36:40.278Z,1416.00
2019-04-28T07:37:40.269Z,1720.00
2019-04-28T07:38:40.241Z,1648.00
2019-04-28T07:39:40.224Z,1536.00
2019-04-28T07:40:40.239Z,952.00
2019-04-28T07:41:40.211Z,944.00
2019-04-28T07:42:40.189Z,1212.00
2019-04-28T07:43:40.189Z,928.00
2019-04-28T07:44:40.177Z,1296.00
2019-04-28T07:45:40.168Z,1332.00
2019-04-28T07:46:40.161Z,1876.00
2019-04-28T07:47:40.150Z,1784.00
2019-04-28T07:48:40.160Z,1336.00
2019-04-28T07:49:40.116Z,1540.00
2019-04-28T07:50:40.145Z,1632.00
2019-04-28T07:51:40.106Z,1404.00
2019-04-28T07:52:40.109Z,1508.00
2019-04-28T07:53:40.070Z,1688.00
2019-04-28T07:54:40.225Z,1468.00
2019-04-28T07:55:40.085Z,1244.00
2019-04-28T07:56:40.049Z,1176.00
2019-04-28T07:57:40.035Z,1124.00
2019-04-28T07:58:40.029Z,1008.00
2019-04-28T07:59:40.013Z,868.00
2019-04-28T08:00:40.007Z,836.00
2019-04-28T08:01:39.995Z,720.00
2019-04-28T08:02:39.987Z,612.00
2019-04-28T08:03:49.277Z,552.00
2019-04-28T08:04:40.961Z,500.00
2019-04-28T08:05:39.973Z,572.00
2019-04-28T08:06:39.938Z,560.00
2019-04-28T08:07:39.917Z,520.00
2019-04-28T08:08:39.904Z,536.00
2019-04-28T08:09:39.890Z,676.00
2019-04-28T08:10:39.959Z,656.00
2019-04-28T08:11:39.878Z,692.00
2019-04-28T08:12:39.857Z,744.00
2019-04-28T08:13:39.846Z,800.00
2019-04-28T08:14:39.846Z,728.00
2019-04-28T08:15:39.848Z,728.00
2019-04-28T08:16:39.820Z,868.00
2019-04-28T08:17:39.826Z,872.00
2019-04-28T08:18:39.793Z,860.00
2019-04-28T08:19:39.793Z,920.00
2019-04-28T08:20:40.163Z,1180.00
2019-04-28T08:21:39.763Z,992.00
2019-04-28T08:22:39.761Z,948.00
2019-04-28T08:23:46.986Z,972.00
2019-04-28T08:24:40.741Z,1016.00
2019-04-28T08:25:39.746Z,1088.00
2019-04-28T08:26:39.744Z,1384.00
2019-04-28T08:27:39.700Z,1732.00
2019-04-28T08:28:39.690Z,1752.00
2019-04-28T08:29:39.675Z,1316.00
2019-04-28T08:30:39.662Z,1344.00
2019-04-28T08:31:39.654Z,1540.00
2019-04-28T08:32:39.646Z,1488.00
2019-04-28T08:33:39.629Z,1632.00
2019-04-28T08:34:39.620Z,2028.00
2019-04-28T08:35:39.624Z,2244.00
2019-04-28T08:36:39.628Z,2436.00
2019-04-28T08:37:39.586Z,2656.00
2019-04-28T08:38:39.570Z,2588.00
2019-04-28T08:39:39.568Z,2720.00
2019-04-28T08:40:39.620Z,2492.00
2019-04-28T08:41:39.556Z,2560.00
2019-04-28T08:42:39.521Z,2364.00
2019-04-28T08:43:39.518Z,2756.00
2019-04-28T08:44:39.502Z,2436.00
2019-04-28T08:45:39.494Z,2380.00
2019-04-28T08:46:39.516Z,2488.00
2019-04-28T08:47:39.467Z,2484.00
2019-04-28T08:48:39.473Z,2532.00
2019-04-28T08:49:39.456Z,2488.00
2019-04-28T08:50:39.439Z,3472.00
2019-04-28T08:51:39.444Z,2760.00
2019-04-28T08:52:39.430Z,2760.00
2019-04-28T08:53:39.408Z,2244.00
2019-04-28T08:54:39.390Z,2048.00
2019-04-28T08:55:39.412Z,2108.00
2019-04-28T08:56:39.398Z,2808.00
2019-04-28T08:57:39.366Z,2532.00
2019-04-28T08:58:39.349Z,2676.00
2019-04-28T08:59:39.345Z,3192.00
2019-04-28T09:00:39.330Z,2740.00
2019-04-28T09:01:39.339Z,2992.00
2019-04-28T09:02:39.316Z,2612.00
2019-04-28T09:03:39.288Z,2848.00
2019-04-28T09:04:39.280Z,2860.00
2019-04-28T09:05:39.280Z,3084.00
2019-04-28T09:06:39.281Z,3000.00
2019-04-28T09:07:39.254Z,3180.00
2019-04-28T09:08:39.241Z,2920.00
2019-04-28T09:09:39.247Z,2716.00
2019-04-28T09:10:39.230Z,2656.00
2019-04-28T09:11:39.232Z,2812.00
2019-04-28T09:12:39.420Z,3228.00
2019-04-28T09:13:39.185Z,3680.00
2019-04-28T09:14:39.186Z,4356.00
2019-04-28T09:15:39.162Z,5140.00
2019-04-28T09:16:39.175Z,5288.00
2019-04-28T09:17:39.139Z,5332.00
2019-04-28T09:18:39.125Z,5340.00
2019-04-28T09:19:39.123Z,5156.00
2019-04-28T09:20:39.109Z,4508.00
2019-04-28T09:21:39.115Z,4132.00
2019-04-28T09:22:39.088Z,3708.00
2019-04-28T09:23:39.070Z,3580.00
2019-04-28T09:24:39.060Z,3024.00
2019-04-28T09:25:39.062Z,2788.00
2019-04-28T09:26:39.063Z,2636.00
2019-04-28T09:27:39.047Z,2548.00
2019-04-28T09:28:39.017Z,2448.00
2019-04-28T09:29:39.017Z,2912.00
2019-04-28T09:30:39.101Z,3320.00
2019-04-28T09:31:38.986Z,3324.00
2019-04-28T09:32:38.993Z,3316.00
2019-04-28T09:33:38.971Z,3116.00
2019-04-28T09:34:38.959Z,2836.00
2019-04-28T09:35:38.951Z,2772.00
2019-04-28T09:36:38.948Z,3316.00
2019-04-28T09:37:38.939Z,3712.00
2019-04-28T09:38:38.914Z,4148.00
2019-04-28T09:39:38.893Z,5084.00
2019-04-28T09:40:38.893Z,4788.00
2019-04-28T09:41:38.871Z,4804.00
2019-04-28T09:42:39.546Z,4740.00
2019-04-28T09:43:38.865Z,5184.00
2019-04-28T09:44:38.834Z,5240.00
2019-04-28T09:45:39.553Z,5028.00
2019-04-28T09:46:38.821Z,4912.00
2019-04-28T09:47:38.824Z,4892.00
2019-04-28T09:48:38.805Z,4632.00
2019-04-28T09:49:38.794Z,4376.00
2019-04-28T09:50:38.780Z,4544.00
2019-04-28T09:51:38.773Z,3892.00
2019-04-28T09:52:38.809Z,3672.00
2019-04-28T09:53:38.778Z,2892.00
2019-04-28T09:54:38.738Z,3192.00
2019-04-28T09:55:38.745Z,3940.00
2019-04-28T09:56:38.708Z,4220.00
2019-04-28T09:57:38.710Z,3096.00
2019-04-28T09:58:38.688Z,1964.00
2019-04-28T09:59:38.714Z,1552.00
2019-04-28T10:00:39.649Z,1688.00
2019-04-28T10:01:38.650Z,1496.00
2019-04-28T10:02:39.139Z,1636.00
2019-04-28T10:03:38.625Z,1904.00
2019-04-28T10:04:41.838Z,2544.00
2019-04-28T10:05:38.603Z,3192.00
2019-04-28T10:06:38.603Z,3396.00
2019-04-28T10:07:38.606Z,3900.00
2019-04-28T10:08:38.642Z,4080.00
2019-04-28T10:09:38.574Z,3812.00
2019-04-28T10:10:38.561Z,3288.00
2019-04-28T10:11:38.539Z,2724.00
2019-04-28T10:12:38.555Z,3096.00
2019-04-28T10:13:38.516Z,3196.00
2019-04-28T10:14:38.504Z,3688.00
2019-04-28T10:15:38.503Z,4080.00
2019-04-28T10:16:38.499Z,4452.00
2019-04-28T10:17:38.490Z,3876.00
2019-04-28T10:18:38.460Z,3432.00
2019-04-28T10:19:38.448Z,3460.00
2019-04-28T10:20:38.448Z,2532.00
2019-04-28T10:21:38.430Z,1908.00
2019-04-28T10:22:38.451Z,1788.00
2019-04-28T10:23:38.457Z,1580.00
2019-04-28T10:24:38.394Z,1436.00
2019-04-28T10:25:38.390Z,1544.00
2019-04-28T10:26:38.377Z,1572.00
2019-04-28T10:27:38.374Z,1588.00
2019-04-28T10:28:38.365Z,1556.00
2019-04-28T10:29:38.357Z,1436.00
2019-04-28T10:30:38.331Z,1576.00
2019-04-28T10:31:38.330Z,1712.00
2019-04-28T10:32:38.323Z,2028.00
2019-04-28T10:33:38.316Z,1960.00
2019-04-28T10:34:38.368Z,1844.00
2019-04-28T10:35:38.290Z,1648.00
2019-04-28T10:36:38.314Z,1504.00
2019-04-28T10:37:38.260Z,1492.00
2019-04-28T10:38:38.266Z,2052.00
2019-04-28T10:39:38.238Z,2304.00
2019-04-28T10:40:38.231Z,2128.00
2019-04-28T10:41:38.224Z,2008.00
2019-04-28T10:42:38.204Z,1740.00
2019-04-28T10:43:38.221Z,1612.00
2019-04-28T10:44:38.181Z,1736.00
2019-04-28T10:45:38.161Z,1900.00
2019-04-28T10:46:38.166Z,2076.00
2019-04-28T10:47:38.165Z,2568.00
2019-04-28T10:48:38.151Z,3156.00
2019-04-28T10:49:38.148Z,3896.00
2019-04-28T10:50:38.121Z,4484.00
2019-04-28T10:51:38.114Z,4868.00
2019-04-28T10:52:38.111Z,5172.00
2019-04-28T10:53:38.117Z,5252.00
2019-04-28T10:54:38.069Z,5140.00
2019-04-28T10:55:38.057Z,5004.00
2019-04-28T10:56:38.054Z,5000.00
2019-04-28T10:57:38.050Z,5220.00
2019-04-28T10:58:38.041Z,5452.00
2019-04-28T10:59:38.007Z,5700.00
2019-04-28T11:00:38.011Z,6172.00
2019-04-28T11:01:37.988Z,6596.00
2019-04-28T11:02:37.967Z,6536.00
2019-04-28T11:03:37.980Z,6248.00
2019-04-28T11:04:37.952Z,5792.00
2019-04-28T11:05:37.941Z,4936.00
2019-04-28T11:06:37.943Z,4836.00
2019-04-28T11:07:37.919Z,4100.00
2019-04-28T11:08:37.945Z,4152.00
2019-04-28T11:09:37.905Z,4168.00
2019-04-28T11:10:37.902Z,4112.00
2019-04-28T11:11:37.878Z,4340.00
2019-04-28T11:12:37.879Z,4748.00
2019-04-28T11:13:37.878Z,5240.00
2019-04-28T11:14:37.843Z,5428.00
2019-04-28T11:15:37.836Z,4708.00
2019-04-28T11:16:37.833Z,4208.00
2019-04-28T11:17:37.832Z,4108.00
2019-04-28T11:18:37.820Z,4248.00
2019-04-28T11:19:37.776Z,4020.00
2019-04-28T11:20:37.778Z,3296.00
2019-04-28T11:21:37.758Z,3056.00
2019-04-28T11:22:37.763Z,2908.00
2019-04-28T11:23:37.764Z,2980.00
2019-04-28T11:24:37.751Z,3624.00
2019-04-28T11:25:37.712Z,3388.00
2019-04-28T11:26:37.711Z,3308.00
2019-04-28T11:27:37.714Z,3264.00
2019-04-28T11:28:37.931Z,3492.00
2019-04-28T11:29:37.742Z,3768.00
2019-04-28T11:30:37.680Z,3940.00
2019-04-28T11:31:37.657Z,4036.00
2019-04-28T11:32:37.669Z,4680.00
2019-04-28T11:33:37.660Z,4956.00
2019-04-28T11:34:37.622Z,4964.00
2019-04-28T11:35:37.612Z,4436.00
2019-04-28T11:36:37.594Z,3480.00
2019-04-28T11:37:37.582Z,2880.00
2019-04-28T11:38:37.604Z,2932.00
2019-04-28T11:39:37.577Z,3588.00
2019-04-28T11:40:37.551Z,4396.00
2019-04-28T11:41:37.540Z,4596.00
2019-04-28T11:42:37.526Z,4148.00
2019-04-28T11:43:37.558Z,3912.00
2019-04-28T11:44:37.524Z,4100.00
2019-04-28T11:45:37.510Z,4824.00
2019-04-28T11:46:37.492Z,5296.00
2019-04-28T11:47:37.474Z,5236.00
2019-04-28T11:48:37.474Z,5224.00
2019-04-28T11:49:37.468Z,5076.00
2019-04-28T11:50:37.448Z,4588.00
2019-04-28T11:51:37.434Z,4000.00
2019-04-28T11:52:37.428Z,3456.00
2019-04-28T11:53:37.413Z,3520.00
2019-04-28T11:54:37.424Z,4212.00
2019-04-28T11:55:37.393Z,4260.00
2019-04-28T11:56:41.616Z,4120.00
2019-04-28T11:57:37.377Z,4116.00
2019-04-28T11:58:37.367Z,3732.00
2019-04-28T11:59:37.353Z,2780.00
2019-04-28T12:00:37.335Z,1972.00
2019-04-28T12:01:37.325Z,1436.00
2019-04-28T12:02:37.307Z,1068.00
2019-04-28T12:03:37.305Z,968.00
2019-04-28T12:04:37.305Z,940.00
2019-04-28T12:05:38.515Z,1064.00
2019-04-28T12:06:37.269Z,1324.00
2019-04-28T12:07:37.252Z,1724.00
2019-04-28T12:08:37.287Z,2200.00
2019-04-28T12:09:37.266Z,2572.00
2019-04-28T12:10:37.246Z,2944.00
2019-04-28T12:11:37.200Z,3204.00
2019-04-28T12:12:37.204Z,3288.00
2019-04-28T12:13:37.188Z,3336.00
2019-04-28T12:14:37.205Z,3296.00
2019-04-28T12:15:37.182Z,3360.00
2019-04-28T12:16:37.165Z,3288.00
2019-04-28T12:17:37.142Z,3240.00
2019-04-28T12:18:37.134Z,2984.00
2019-04-28T12:19:37.151Z,2788.00
2019-04-28T12:20:37.112Z,3188.00
2019-04-28T12:21:37.094Z,3632.00
2019-04-28T12:22:37.105Z,3748.00
2019-04-28T12:23:37.069Z,3504.00
2019-04-28T12:24:37.095Z,3476.00
2019-04-28T12:25:37.058Z,3612.00
2019-04-28T12:26:37.067Z,3728.00
2019-04-28T12:27:37.029Z,3440.00
2019-04-28T12:28:37.027Z,3200.00
2019-04-28T12:29:37.039Z,3196.00
2019-04-28T12:30:36.993Z,3264.00
2019-04-28T12:31:37.012Z,3224.00
2019-04-28T12:32:36.991Z,3332.00
2019-04-28T12:33:36.976Z,3472.00
2019-04-28T12:34:36.974Z,3728.00
2019-04-28T12:35:47.082Z,4084.00